sensor_id;sensor_type;location;lat;lon;timestamp;temperature;humidity
8226;DHT22;4154;48.810;9.012;2023-02-28T00:00:28;-1.00;82.50
8226;DHT22;4154;48.810;9.012;2023-02-28T00:02:54;-1.00;82.70
8226;DHT22;4154;48.810;9.012;2023-02-28T00:05:22;-1.00;82.90
8226;DHT22;4154;48.810;9.012;2023-02-28T00:07:50;-1.00;82.80
8226;DHT22;4154;48.810;9.012;2023-02-28T00:10:21;-1.00;82.70
8226;DHT22;4154;48.810;9.012;2023-02-28T00:12:50;-1.00;82.80
8226;DHT22;4154;48.810;9.012;2023-02-28T00:15:16;-1.00;82.80
8226;DHT22;4154;48.810;9.012;2023-02-28T00:17:43;-1.00;82.90
8226;DHT22;4154;48.810;9.012;2023-02-28T00:20:10;-0.40;92.90
8226;DHT22;4154;48.810;9.012;2023-02-28T00:22:45;-1.10;83.10
8226;DHT22;4154;48.810;9.012;2023-02-28T00:25:15;-1.10;83.10
8226;DHT22;4154;48.810;9.012;2023-02-28T00:27:42;-1.10;83.20
8226;DHT22;4154;48.810;9.012;2023-02-28T00:30:20;-1.10;83.30
8226;DHT22;4154;48.810;9.012;2023-02-28T00:35:14;-1.30;93.00
8226;DHT22;4154;48.810;9.012;2023-02-28T00:37:41;-1.20;83.90
8226;DHT22;4154;48.810;9.012;2023-02-28T00:40:08;-1.30;84.10
8226;DHT22;4154;48.810;9.012;2023-02-28T00:45:01;-1.20;84.10
8226;DHT22;4154;48.810;9.012;2023-02-28T00:52:22;-1.30;84.30
8226;DHT22;4154;48.810;9.012;2023-02-28T00:54:47;-1.30;85.30
8226;DHT22;4154;48.810;9.012;2023-02-28T00:57:13;-1.30;85.20
8226;DHT22;4154;48.810;9.012;2023-02-28T00:59:38;-1.30;85.20
8226;DHT22;4154;48.810;9.012;2023-02-28T01:02:04;-1.30;85.20
8226;DHT22;4154;48.810;9.012;2023-02-28T01:04:30;-1.30;85.30
8226;DHT22;4154;48.810;9.012;2023-02-28T01:09:21;-1.40;85.10
8226;DHT22;4154;48.810;9.012;2023-02-28T01:14:14;-1.30;85.30
8226;DHT22;4154;48.810;9.012;2023-02-28T01:16:41;-1.50;93.70
8226;DHT22;4154;48.810;9.012;2023-02-28T01:19:08;-1.40;86.10
8226;DHT22;4154;48.810;9.012;2023-02-28T01:24:00;-1.40;85.90
8226;DHT22;4154;48.810;9.012;2023-02-28T01:26:27;-1.40;86.50
8226;DHT22;4154;48.810;9.012;2023-02-28T01:31:21;-1.40;86.50
8226;DHT22;4154;48.810;9.012;2023-02-28T01:33:47;-1.40;87.00
8226;DHT22;4154;48.810;9.012;2023-02-28T01:36:15;-1.40;86.60
8226;DHT22;4154;48.810;9.012;2023-02-28T01:38:41;-1.40;87.00
8226;DHT22;4154;48.810;9.012;2023-02-28T01:41:08;-1.40;87.10
8226;DHT22;4154;48.810;9.012;2023-02-28T01:46:09;-1.40;87.50
8226;DHT22;4154;48.810;9.012;2023-02-28T01:48:51;-1.40;87.70
8226;DHT22;4154;48.810;9.012;2023-02-28T01:54:16;-1.40;88.00
8226;DHT22;4154;48.810;9.012;2023-02-28T01:56:54;-1.40;94.80
8226;DHT22;4154;48.810;9.012;2023-02-28T01:59:34;-1.50;88.20
8226;DHT22;4154;48.810;9.012;2023-02-28T02:04:53;-1.50;88.20
8226;DHT22;4154;48.810;9.012;2023-02-28T02:07:23;-1.50;88.70
8226;DHT22;4154;48.810;9.012;2023-02-28T02:10:00;-1.50;88.80
8226;DHT22;4154;48.810;9.012;2023-02-28T02:12:58;-1.50;89.00
8226;DHT22;4154;48.810;9.012;2023-02-28T02:18:50;-1.50;89.20
8226;DHT22;4154;48.810;9.012;2023-02-28T02:38:34;-1.50;89.70
8226;DHT22;4154;48.810;9.012;2023-02-28T02:41:08;-1.50;90.00
8226;DHT22;4154;48.810;9.012;2023-02-28T02:43:46;-1.50;90.00
8226;DHT22;4154;48.810;9.012;2023-02-28T02:46:26;-1.50;90.10
8226;DHT22;4154;48.810;9.012;2023-02-28T02:49:00;-1.50;90.00
8226;DHT22;4154;48.810;9.012;2023-02-28T02:51:30;-1.40;90.00
8226;DHT22;4154;48.810;9.012;2023-02-28T02:54:04;-1.40;90.10
8226;DHT22;4154;48.810;9.012;2023-02-28T02:56:39;-1.40;90.10
8226;DHT22;4154;48.810;9.012;2023-02-28T02:59:11;-1.50;90.30
8226;DHT22;4154;48.810;9.012;2023-02-28T03:01:41;-1.40;90.30
8226;DHT22;4154;48.810;9.012;2023-02-28T03:04:15;-1.40;90.30
8226;DHT22;4154;48.810;9.012;2023-02-28T03:06:43;-1.40;95.60
8226;DHT22;4154;48.810;9.012;2023-02-28T03:09:09;-1.30;90.00
8226;DHT22;4154;48.810;9.012;2023-02-28T03:11:37;-1.30;89.70
8226;DHT22;4154;48.810;9.012;2023-02-28T03:23:29;-1.30;90.10
8226;DHT22;4154;48.810;9.012;2023-02-28T03:26:14;-1.30;90.20
8226;DHT22;4154;48.810;9.012;2023-02-28T03:29:12;-1.40;90.20
8226;DHT22;4154;48.810;9.012;2023-02-28T03:31:52;-1.40;90.40
8226;DHT22;4154;48.810;9.012;2023-02-28T03:34:34;-1.40;90.50
8226;DHT22;4154;48.810;9.012;2023-02-28T03:37:08;-1.50;90.50
8226;DHT22;4154;48.810;9.012;2023-02-28T03:39:59;-1.50;90.70
8226;DHT22;4154;48.810;9.012;2023-02-28T03:42:34;-1.60;90.80
8226;DHT22;4154;48.810;9.012;2023-02-28T03:45:10;-1.50;90.90
8226;DHT22;4154;48.810;9.012;2023-02-28T03:47:53;-1.50;90.90
8226;DHT22;4154;48.810;9.012;2023-02-28T03:50:30;-1.40;90.80
8226;DHT22;4154;48.810;9.012;2023-02-28T03:53:14;-1.40;90.80
8226;DHT22;4154;48.810;9.012;2023-02-28T03:55:48;-1.30;90.90
8226;DHT22;4154;48.810;9.012;2023-02-28T03:58:51;-1.30;91.00
8226;DHT22;4154;48.810;9.012;2023-02-28T04:01:27;-1.30;91.10
8226;DHT22;4154;48.810;9.012;2023-02-28T04:03:59;-1.30;91.10
8226;DHT22;4154;48.810;9.012;2023-02-28T04:08:52;-1.30;91.10
8226;DHT22;4154;48.810;9.012;2023-02-28T04:11:22;-1.30;91.30
8226;DHT22;4154;48.810;9.012;2023-02-28T04:13:53;-1.30;91.40
8226;DHT22;4154;48.810;9.012;2023-02-28T04:18:44;-1.30;91.30
8226;DHT22;4154;48.810;9.012;2023-02-28T04:21:11;-1.30;91.50
8226;DHT22;4154;48.810;9.012;2023-02-28T04:23:37;-1.30;91.60
8226;DHT22;4154;48.810;9.012;2023-02-28T04:31:03;-1.30;91.50
8226;DHT22;4154;48.810;9.012;2023-02-28T04:33:31;-1.30;91.80
8226;DHT22;4154;48.810;9.012;2023-02-28T04:36:03;-1.20;91.80
8226;DHT22;4154;48.810;9.012;2023-02-28T04:38:37;-1.20;91.90
8226;DHT22;4154;48.810;9.012;2023-02-28T04:41:04;-1.20;92.00
8226;DHT22;4154;48.810;9.012;2023-02-28T04:43:31;-1.20;92.10
8226;DHT22;4154;48.810;9.012;2023-02-28T04:46:00;-1.20;92.20
8226;DHT22;4154;48.810;9.012;2023-02-28T04:48:28;-1.20;92.20
8226;DHT22;4154;48.810;9.012;2023-02-28T04:50:55;-1.10;92.10
8226;DHT22;4154;48.810;9.012;2023-02-28T04:53:20;-1.00;92.00
8226;DHT22;4154;48.810;9.012;2023-02-28T04:55:46;-1.00;92.00
8226;DHT22;4154;48.810;9.012;2023-02-28T04:58:13;-1.00;91.80
8226;DHT22;4154;48.810;9.012;2023-02-28T05:03:06;-1.00;91.90
8226;DHT22;4154;48.810;9.012;2023-02-28T05:05:32;-1.10;92.10
8226;DHT22;4154;48.810;9.012;2023-02-28T05:07:58;-1.10;92.10
8226;DHT22;4154;48.810;9.012;2023-02-28T05:10:23;-1.00;92.00
8226;DHT22;4154;48.810;9.012;2023-02-28T05:12:49;-1.00;92.10
8226;DHT22;4154;48.810;9.012;2023-02-28T05:15:16;-1.00;92.10
8226;DHT22;4154;48.810;9.012;2023-02-28T05:17:42;-1.10;92.10
8226;DHT22;4154;48.810;9.012;2023-02-28T05:20:09;-1.10;92.20
8226;DHT22;4154;48.810;9.012;2023-02-28T05:22:39;-1.10;92.20
8226;DHT22;4154;48.810;9.012;2023-02-28T05:25:06;-1.00;92.20
8226;DHT22;4154;48.810;9.012;2023-02-28T05:27:33;-1.00;92.10
8226;DHT22;4154;48.810;9.012;2023-02-28T05:29:59;-1.10;92.20
8226;DHT22;4154;48.810;9.012;2023-02-28T05:32:27;-1.10;92.40
8226;DHT22;4154;48.810;9.012;2023-02-28T05:37:19;-1.10;92.10
8226;DHT22;4154;48.810;9.012;2023-02-28T05:44:37;-1.10;92.20
8226;DHT22;4154;48.810;9.012;2023-02-28T05:47:02;-1.10;92.40
8226;DHT22;4154;48.810;9.012;2023-02-28T05:49:28;-1.00;92.40
8226;DHT22;4154;48.810;9.012;2023-02-28T05:51:54;-1.00;92.40
8226;DHT22;4154;48.810;9.012;2023-02-28T05:54:20;-1.10;92.50
8226;DHT22;4154;48.810;9.012;2023-02-28T05:56:45;-1.10;97.90
8226;DHT22;4154;48.810;9.012;2023-02-28T05:59:14;-1.10;92.40
8226;DHT22;4154;48.810;9.012;2023-02-28T06:01:44;-1.10;92.50
8226;DHT22;4154;48.810;9.012;2023-02-28T06:04:15;-1.10;92.50
8226;DHT22;4154;48.810;9.012;2023-02-28T06:11:37;-1.00;92.10
8226;DHT22;4154;48.810;9.012;2023-02-28T06:14:04;-1.00;92.40
8226;DHT22;4154;48.810;9.012;2023-02-28T06:16:31;-1.00;92.30
8226;DHT22;4154;48.810;9.012;2023-02-28T06:19:00;-1.10;92.50
8226;DHT22;4154;48.810;9.012;2023-02-28T06:26:20;-0.90;92.20
8226;DHT22;4154;48.810;9.012;2023-02-28T06:31:14;-1.00;92.30
8226;DHT22;4154;48.810;9.012;2023-02-28T06:33:42;-0.90;92.40
8226;DHT22;4154;48.810;9.012;2023-02-28T06:36:11;-0.80;92.20
8226;DHT22;4154;48.810;9.012;2023-02-28T06:41:05;-0.90;92.20
8226;DHT22;4154;48.810;9.012;2023-02-28T06:43:35;-0.90;92.40
8226;DHT22;4154;48.810;9.012;2023-02-28T06:46:04;-0.90;92.40
8226;DHT22;4154;48.810;9.012;2023-02-28T06:48:32;-0.90;92.40
8226;DHT22;4154;48.810;9.012;2023-02-28T06:51:07;-0.80;92.40
8226;DHT22;4154;48.810;9.012;2023-02-28T06:53:35;-0.90;92.40
8226;DHT22;4154;48.810;9.012;2023-02-28T06:56:07;-0.90;92.30
8226;DHT22;4154;48.810;9.012;2023-02-28T06:58:35;-0.90;92.20
8226;DHT22;4154;48.810;9.012;2023-02-28T07:01:02;-0.90;92.30
8226;DHT22;4154;48.810;9.012;2023-02-28T07:03:29;-0.90;92.20
8226;DHT22;4154;48.810;9.012;2023-02-28T07:05:55;-0.80;92.30
8226;DHT22;4154;48.810;9.012;2023-02-28T07:08:22;-0.80;92.30
8226;DHT22;4154;48.810;9.012;2023-02-28T07:10:52;-0.80;92.10
8226;DHT22;4154;48.810;9.012;2023-02-28T07:13:19;-0.80;92.10
8226;DHT22;4154;48.810;9.012;2023-02-28T07:15:59;-0.70;92.00
8226;DHT22;4154;48.810;9.012;2023-02-28T07:18:27;-0.80;92.00
8226;DHT22;4154;48.810;9.012;2023-02-28T07:25:45;-0.60;91.60
8226;DHT22;4154;48.810;9.012;2023-02-28T07:28:12;-0.70;91.80
8226;DHT22;4154;48.810;9.012;2023-02-28T07:30:39;-0.70;91.90
8226;DHT22;4154;48.810;9.012;2023-02-28T07:33:05;-0.60;91.90
8226;DHT22;4154;48.810;9.012;2023-02-28T07:35:31;-0.60;91.90
8226;DHT22;4154;48.810;9.012;2023-02-28T07:37:59;-0.50;91.80
8226;DHT22;4154;48.810;9.012;2023-02-28T07:40:26;-0.40;91.70
8226;DHT22;4154;48.810;9.012;2023-02-28T07:42:52;-0.40;91.60
8226;DHT22;4154;48.810;9.012;2023-02-28T07:45:18;-0.40;91.70
8226;DHT22;4154;48.810;9.012;2023-02-28T07:47:44;-0.50;91.70
8226;DHT22;4154;48.810;9.012;2023-02-28T07:50:13;-0.50;91.60
8226;DHT22;4154;48.810;9.012;2023-02-28T07:52:41;-0.40;91.60
8226;DHT22;4154;48.810;9.012;2023-02-28T07:55:08;-0.40;91.50
8226;DHT22;4154;48.810;9.012;2023-02-28T07:57:35;-0.40;91.50
8226;DHT22;4154;48.810;9.012;2023-02-28T08:00:04;-0.40;97.10
8226;DHT22;4154;48.810;9.012;2023-02-28T08:02:30;-0.50;91.60
8226;DHT22;4154;48.810;9.012;2023-02-28T08:04:56;-0.40;91.60
8226;DHT22;4154;48.810;9.012;2023-02-28T08:09:48;-0.40;91.30
8226;DHT22;4154;48.810;9.012;2023-02-28T08:14:40;-0.40;91.20
8226;DHT22;4154;48.810;9.012;2023-02-28T08:17:05;-0.40;91.30
8226;DHT22;4154;48.810;9.012;2023-02-28T08:21:58;-0.40;91.30
8226;DHT22;4154;48.810;9.012;2023-02-28T08:26:50;-0.30;97.20
8226;DHT22;4154;48.810;9.012;2023-02-28T08:29:16;-0.40;91.70
8226;DHT22;4154;48.810;9.012;2023-02-28T08:31:42;-0.20;91.60
8226;DHT22;4154;48.810;9.012;2023-02-28T08:34:09;-0.30;91.50
8226;DHT22;4154;48.810;9.012;2023-02-28T08:36:36;-0.30;91.50
8226;DHT22;4154;48.810;9.012;2023-02-28T08:41:30;-0.30;91.30
8226;DHT22;4154;48.810;9.012;2023-02-28T08:43:56;-0.30;91.50
8226;DHT22;4154;48.810;9.012;2023-02-28T08:46:24;-0.20;91.30
8226;DHT22;4154;48.810;9.012;2023-02-28T08:48:54;-0.30;91.60
8226;DHT22;4154;48.810;9.012;2023-02-28T08:51:24;-0.20;91.60
8226;DHT22;4154;48.810;9.012;2023-02-28T08:53:59;-0.10;91.50
8226;DHT22;4154;48.810;9.012;2023-02-28T08:56:27;0.90;91.70
8226;DHT22;4154;48.810;9.012;2023-02-28T08:58:55;-0.10;90.90
8226;DHT22;4154;48.810;9.012;2023-02-28T09:01:27;-0.10;91.10
8226;DHT22;4154;48.810;9.012;2023-02-28T09:03:55;0.00;91.10
8226;DHT22;4154;48.810;9.012;2023-02-28T09:06:23;0.10;91.00
8226;DHT22;4154;48.810;9.012;2023-02-28T09:11:18;0.10;90.70
8226;DHT22;4154;48.810;9.012;2023-02-28T09:13:45;0.00;91.10
8226;DHT22;4154;48.810;9.012;2023-02-28T09:16:14;0.10;90.90
8226;DHT22;4154;48.810;9.012;2023-02-28T09:21:09;0.20;90.50
8226;DHT22;4154;48.810;9.012;2023-02-28T09:23:40;0.20;90.80
8226;DHT22;4154;48.810;9.012;2023-02-28T09:26:07;0.10;90.80
8226;DHT22;4154;48.810;9.012;2023-02-28T09:28:33;0.20;91.00
8226;DHT22;4154;48.810;9.012;2023-02-28T09:30:58;0.20;91.20
8226;DHT22;4154;48.810;9.012;2023-02-28T09:33:25;0.30;91.10
8226;DHT22;4154;48.810;9.012;2023-02-28T09:35:57;0.30;91.00
8226;DHT22;4154;48.810;9.012;2023-02-28T09:38:24;0.30;91.00
8226;DHT22;4154;48.810;9.012;2023-02-28T09:40:55;0.40;91.00
8226;DHT22;4154;48.810;9.012;2023-02-28T09:43:27;0.50;90.70
8226;DHT22;4154;48.810;9.012;2023-02-28T09:46:25;0.60;90.70
8226;DHT22;4154;48.810;9.012;2023-02-28T09:48:57;0.60;90.60
8226;DHT22;4154;48.810;9.012;2023-02-28T09:51:37;0.60;90.40
8226;DHT22;4154;48.810;9.012;2023-02-28T09:54:14;0.70;90.50
8226;DHT22;4154;48.810;9.012;2023-02-28T09:56:45;0.40;95.80
8226;DHT22;4154;48.810;9.012;2023-02-28T09:59:41;0.70;90.20
8226;DHT22;4154;48.810;9.012;2023-02-28T10:03:02;0.70;90.20
8226;DHT22;4154;48.810;9.012;2023-02-28T10:05:41;0.70;90.40
8226;DHT22;4154;48.810;9.012;2023-02-28T10:11:09;1.10;89.70
8226;DHT22;4154;48.810;9.012;2023-02-28T10:16:40;1.10;89.10
8226;DHT22;4154;48.810;9.012;2023-02-28T10:19:20;1.30;89.60
8226;DHT22;4154;48.810;9.012;2023-02-28T10:22:34;1.30;88.80
8226;DHT22;4154;48.810;9.012;2023-02-28T10:25:24;1.40;88.50
8226;DHT22;4154;48.810;9.012;2023-02-28T10:27:54;1.50;88.20
8226;DHT22;4154;48.810;9.012;2023-02-28T10:30:26;1.60;87.70
8226;DHT22;4154;48.810;9.012;2023-02-28T10:32:52;1.70;87.60
8226;DHT22;4154;48.810;9.012;2023-02-28T10:35:21;1.60;86.80
8226;DHT22;4154;48.810;9.012;2023-02-28T10:37:52;1.60;87.10
8226;DHT22;4154;48.810;9.012;2023-02-28T10:42:58;1.70;87.60
8226;DHT22;4154;48.810;9.012;2023-02-28T10:45:30;1.90;87.00
8226;DHT22;4154;48.810;9.012;2023-02-28T11:01:25;2.20;86.10
8226;DHT22;4154;48.810;9.012;2023-02-28T11:07:21;2.30;93.60
8226;DHT22;4154;48.810;9.012;2023-02-28T11:09:52;2.30;86.70
8226;DHT22;4154;48.810;9.012;2023-02-28T11:12:26;2.50;86.20
8226;DHT22;4154;48.810;9.012;2023-02-28T11:15:02;2.60;87.10
8226;DHT22;4154;48.810;9.012;2023-02-28T11:20:01;2.70;84.90
8226;DHT22;4154;48.810;9.012;2023-02-28T11:22:35;2.70;85.20
8226;DHT22;4154;48.810;9.012;2023-02-28T11:25:12;2.50;84.50
8226;DHT22;4154;48.810;9.012;2023-02-28T11:27:48;2.50;85.70
8226;DHT22;4154;48.810;9.012;2023-02-28T11:30:25;2.40;86.10
8226;DHT22;4154;48.810;9.012;2023-02-28T11:35:27;2.40;84.20
8226;DHT22;4154;48.810;9.012;2023-02-28T11:38:00;2.40;85.50
8226;DHT22;4154;48.810;9.012;2023-02-28T11:40:43;2.30;85.40
8226;DHT22;4154;48.810;9.012;2023-02-28T11:46:54;2.30;93.50
8226;DHT22;4154;48.810;9.012;2023-02-28T11:49:33;2.40;86.10
8226;DHT22;4154;48.810;9.012;2023-02-28T11:52:42;2.30;86.20
8226;DHT22;4154;48.810;9.012;2023-02-28T11:55:31;2.50;85.40
8226;DHT22;4154;48.810;9.012;2023-02-28T12:10:24;2.80;85.10
8226;DHT22;4154;48.810;9.012;2023-02-28T12:12:59;3.00;84.80
8226;DHT22;4154;48.810;9.012;2023-02-28T12:23:56;3.50;82.80
8226;DHT22;4154;48.810;9.012;2023-02-28T12:26:41;3.40;82.70
8226;DHT22;4154;48.810;9.012;2023-02-28T12:29:21;3.50;83.60
8226;DHT22;4154;48.810;9.012;2023-02-28T12:32:13;3.50;82.90
8226;DHT22;4154;48.810;9.012;2023-02-28T12:34:49;3.60;83.10
8226;DHT22;4154;48.810;9.012;2023-02-28T12:37:27;3.60;82.50
8226;DHT22;4154;48.810;9.012;2023-02-28T12:40:09;3.80;82.60
8226;DHT22;4154;48.810;9.012;2023-02-28T12:42:43;3.90;81.40
8226;DHT22;4154;48.810;9.012;2023-02-28T12:47:44;4.00;80.60
8226;DHT22;4154;48.810;9.012;2023-02-28T12:50:12;4.00;81.00
8226;DHT22;4154;48.810;9.012;2023-02-28T12:55:33;3.90;81.90
8226;DHT22;4154;48.810;9.012;2023-02-28T13:06:59;3.90;91.60
8226;DHT22;4154;48.810;9.012;2023-02-28T13:09:52;3.90;81.60
8226;DHT22;4154;48.810;9.012;2023-02-28T13:14:48;4.20;81.40
8226;DHT22;4154;48.810;9.012;2023-02-28T13:17:23;4.20;82.10
8226;DHT22;4154;48.810;9.012;2023-02-28T13:24:57;4.50;80.30
8226;DHT22;4154;48.810;9.012;2023-02-28T13:27:24;4.60;80.80
8226;DHT22;4154;48.810;9.012;2023-02-28T13:29:58;4.70;81.40
8226;DHT22;4154;48.810;9.012;2023-02-28T13:32:32;4.80;80.70
8226;DHT22;4154;48.810;9.012;2023-02-28T13:37:32;4.90;80.80
8226;DHT22;4154;48.810;9.012;2023-02-28T13:40:29;4.90;80.70
8226;DHT22;4154;48.810;9.012;2023-02-28T13:43:02;4.90;79.60
8226;DHT22;4154;48.810;9.012;2023-02-28T13:45:32;4.90;79.90
8226;DHT22;4154;48.810;9.012;2023-02-28T13:48:15;5.10;78.70
8226;DHT22;4154;48.810;9.012;2023-02-28T13:50:48;5.10;79.20
8226;DHT22;4154;48.810;9.012;2023-02-28T13:55:47;5.10;79.10
8226;DHT22;4154;48.810;9.012;2023-02-28T13:58:41;5.20;79.30
8226;DHT22;4154;48.810;9.012;2023-02-28T14:01:51;5.10;79.40
8226;DHT22;4154;48.810;9.012;2023-02-28T14:07:38;5.10;79.30
8226;DHT22;4154;48.810;9.012;2023-02-28T14:10:48;5.00;79.30
8226;DHT22;4154;48.810;9.012;2023-02-28T14:13:39;5.10;79.80
8226;DHT22;4154;48.810;9.012;2023-02-28T14:16:15;5.20;79.00
8226;DHT22;4154;48.810;9.012;2023-02-28T14:18:58;5.30;79.20
8226;DHT22;4154;48.810;9.012;2023-02-28T14:21:32;5.30;79.10
8226;DHT22;4154;48.810;9.012;2023-02-28T14:32:30;5.40;77.50
8226;DHT22;4154;48.810;9.012;2023-02-28T14:40:25;5.20;77.50
8226;DHT22;4154;48.810;9.012;2023-02-28T14:43:00;5.20;78.70
8226;DHT22;4154;48.810;9.012;2023-02-28T14:45:31;5.30;78.00
8226;DHT22;4154;48.810;9.012;2023-02-28T14:47:58;5.50;77.20
8226;DHT22;4154;48.810;9.012;2023-02-28T14:50:36;5.60;77.30
8226;DHT22;4154;48.810;9.012;2023-02-28T14:55:31;5.40;76.90
8226;DHT22;4154;48.810;9.012;2023-02-28T14:58:04;5.20;76.80
8226;DHT22;4154;48.810;9.012;2023-02-28T15:00:47;5.20;77.20
8226;DHT22;4154;48.810;9.012;2023-02-28T15:03:39;5.10;77.70
8226;DHT22;4154;48.810;9.012;2023-02-28T15:06:12;5.10;78.30
8226;DHT22;4154;48.810;9.012;2023-02-28T15:08:40;5.10;78.50
8226;DHT22;4154;48.810;9.012;2023-02-28T15:11:14;5.10;78.40
8226;DHT22;4154;48.810;9.012;2023-02-28T15:13:44;5.00;78.60
8226;DHT22;4154;48.810;9.012;2023-02-28T15:16:16;5.00;78.40
8226;DHT22;4154;48.810;9.012;2023-02-28T15:19:00;5.10;79.00
8226;DHT22;4154;48.810;9.012;2023-02-28T15:21:30;5.00;78.80
8226;DHT22;4154;48.810;9.012;2023-02-28T15:24:05;5.20;77.70
8226;DHT22;4154;48.810;9.012;2023-02-28T15:26:41;5.20;77.50
8226;DHT22;4154;48.810;9.012;2023-02-28T15:29:19;5.10;77.80
8226;DHT22;4154;48.810;9.012;2023-02-28T15:32:00;5.20;77.70
8226;DHT22;4154;48.810;9.012;2023-02-28T15:34:43;5.10;78.30
8226;DHT22;4154;48.810;9.012;2023-02-28T15:37:38;5.00;78.20
8226;DHT22;4154;48.810;9.012;2023-02-28T15:40:16;5.00;78.40
8226;DHT22;4154;48.810;9.012;2023-02-28T15:43:13;5.00;78.70
8226;DHT22;4154;48.810;9.012;2023-02-28T15:45:48;4.90;79.30
8226;DHT22;4154;48.810;9.012;2023-02-28T15:51:20;4.70;80.30
8226;DHT22;4154;48.810;9.012;2023-02-28T15:54:02;4.70;80.00
8226;DHT22;4154;48.810;9.012;2023-02-28T15:56:44;4.60;80.20
8226;DHT22;4154;48.810;9.012;2023-02-28T15:59:37;4.60;79.60
8226;DHT22;4154;48.810;9.012;2023-02-28T16:02:13;4.60;79.90
8226;DHT22;4154;48.810;9.012;2023-02-28T16:07:26;4.60;80.30
8226;DHT22;4154;48.810;9.012;2023-02-28T16:12:20;4.60;79.50
8226;DHT22;4154;48.810;9.012;2023-02-28T16:14:52;4.60;80.10
8226;DHT22;4154;48.810;9.012;2023-02-28T16:17:27;4.50;80.70
8226;DHT22;4154;48.810;9.012;2023-02-28T16:19:55;4.50;80.60
8226;DHT22;4154;48.810;9.012;2023-02-28T16:22:21;4.40;80.50
8226;DHT22;4154;48.810;9.012;2023-02-28T16:24:47;4.40;80.30
8226;DHT22;4154;48.810;9.012;2023-02-28T16:27:25;4.40;80.50
8226;DHT22;4154;48.810;9.012;2023-02-28T16:29:55;4.40;80.70
8226;DHT22;4154;48.810;9.012;2023-02-28T16:32:21;4.30;81.10
8226;DHT22;4154;48.810;9.012;2023-02-28T16:34:47;4.20;81.20
8226;DHT22;4154;48.810;9.012;2023-02-28T16:37:14;4.20;81.20
8226;DHT22;4154;48.810;9.012;2023-02-28T16:39:44;4.20;81.60
8226;DHT22;4154;48.810;9.012;2023-02-28T16:42:26;4.20;81.60
8226;DHT22;4154;48.810;9.012;2023-02-28T16:44:54;4.20;81.00
8226;DHT22;4154;48.810;9.012;2023-02-28T16:47:21;4.20;81.20
8226;DHT22;4154;48.810;9.012;2023-02-28T16:52:13;4.20;81.30
8226;DHT22;4154;48.810;9.012;2023-02-28T16:54:40;4.20;81.90
8226;DHT22;4154;48.810;9.012;2023-02-28T16:57:17;4.10;81.60
8226;DHT22;4154;48.810;9.012;2023-02-28T17:02:14;4.00;82.10
8226;DHT22;4154;48.810;9.012;2023-02-28T17:04:44;4.00;82.50
8226;DHT22;4154;48.810;9.012;2023-02-28T17:07:12;3.90;82.10
8226;DHT22;4154;48.810;9.012;2023-02-28T17:09:39;3.90;82.50
8226;DHT22;4154;48.810;9.012;2023-02-28T17:12:06;3.80;82.80
8226;DHT22;4154;48.810;9.012;2023-02-28T17:14:32;3.80;82.60
8226;DHT22;4154;48.810;9.012;2023-02-28T17:16:57;3.50;92.00
8226;DHT22;4154;48.810;9.012;2023-02-28T17:19:23;3.70;82.50
8226;DHT22;4154;48.810;9.012;2023-02-28T17:21:49;3.70;82.50
8226;DHT22;4154;48.810;9.012;2023-02-28T17:24:14;3.70;82.50
8226;DHT22;4154;48.810;9.012;2023-02-28T17:26:42;4.00;92.10
8226;DHT22;4154;48.810;9.012;2023-02-28T17:29:16;3.50;82.90
8226;DHT22;4154;48.810;9.012;2023-02-28T17:36:36;3.30;83.00
8226;DHT22;4154;48.810;9.012;2023-02-28T17:39:04;3.30;83.40
8226;DHT22;4154;48.810;9.012;2023-02-28T17:41:35;3.20;82.90
8226;DHT22;4154;48.810;9.012;2023-02-28T17:44:00;3.20;84.00
8226;DHT22;4154;48.810;9.012;2023-02-28T17:46:26;3.20;83.50
8226;DHT22;4154;48.810;9.012;2023-02-28T17:51:22;3.10;83.30
8226;DHT22;4154;48.810;9.012;2023-02-28T17:56:22;3.10;83.40
8226;DHT22;4154;48.810;9.012;2023-02-28T17:58:50;3.00;84.00
8226;DHT22;4154;48.810;9.012;2023-02-28T18:01:18;2.90;84.20
8226;DHT22;4154;48.810;9.012;2023-02-28T18:03:45;2.80;84.10
8226;DHT22;4154;48.810;9.012;2023-02-28T18:06:39;2.90;84.30
8226;DHT22;4154;48.810;9.012;2023-02-28T18:09:14;2.70;83.90
8226;DHT22;4154;48.810;9.012;2023-02-28T18:11:41;2.70;84.40
8226;DHT22;4154;48.810;9.012;2023-02-28T18:14:07;2.60;84.50
8226;DHT22;4154;48.810;9.012;2023-02-28T18:16:33;2.60;84.70
8226;DHT22;4154;48.810;9.012;2023-02-28T18:18:59;2.60;84.70
8226;DHT22;4154;48.810;9.012;2023-02-28T18:21:27;2.50;84.80
8226;DHT22;4154;48.810;9.012;2023-02-28T18:23:53;2.40;84.90
8226;DHT22;4154;48.810;9.012;2023-02-28T18:26:19;2.30;84.80
8226;DHT22;4154;48.810;9.012;2023-02-28T18:28:46;2.30;85.20
8226;DHT22;4154;48.810;9.012;2023-02-28T18:31:15;2.20;84.90
8226;DHT22;4154;48.810;9.012;2023-02-28T18:33:43;2.20;84.70
8226;DHT22;4154;48.810;9.012;2023-02-28T18:38:38;2.20;84.50
8226;DHT22;4154;48.810;9.012;2023-02-28T18:41:05;2.20;85.10
8226;DHT22;4154;48.810;9.012;2023-02-28T18:43:34;2.20;84.70
8226;DHT22;4154;48.810;9.012;2023-02-28T18:46:14;2.20;85.20
8226;DHT22;4154;48.810;9.012;2023-02-28T18:51:11;2.10;84.90
8226;DHT22;4154;48.810;9.012;2023-02-28T18:53:42;2.10;85.00
8226;DHT22;4154;48.810;9.012;2023-02-28T18:56:11;2.10;85.40
8226;DHT22;4154;48.810;9.012;2023-02-28T18:58:39;2.00;85.40
8226;DHT22;4154;48.810;9.012;2023-02-28T19:01:23;2.00;85.10
8226;DHT22;4154;48.810;9.012;2023-02-28T19:03:52;2.00;85.50
8226;DHT22;4154;48.810;9.012;2023-02-28T19:06:18;2.00;85.40
8226;DHT22;4154;48.810;9.012;2023-02-28T19:08:44;2.00;85.30
8226;DHT22;4154;48.810;9.012;2023-02-28T19:11:12;1.90;85.00
8226;DHT22;4154;48.810;9.012;2023-02-28T19:16:07;1.90;85.10
8226;DHT22;4154;48.810;9.012;2023-02-28T19:18:35;1.90;85.60
8226;DHT22;4154;48.810;9.012;2023-02-28T19:23:31;1.90;85.20
8226;DHT22;4154;48.810;9.012;2023-02-28T19:30:49;2.00;93.30
8226;DHT22;4154;48.810;9.012;2023-02-28T19:35:45;1.80;85.30
8226;DHT22;4154;48.810;9.012;2023-02-28T19:38:11;1.80;85.70
8226;DHT22;4154;48.810;9.012;2023-02-28T19:40:37;1.80;85.70
8226;DHT22;4154;48.810;9.012;2023-02-28T19:43:04;1.80;85.60
8226;DHT22;4154;48.810;9.012;2023-02-28T19:45:32;1.80;85.70
8226;DHT22;4154;48.810;9.012;2023-02-28T19:50:24;1.70;85.40
8226;DHT22;4154;48.810;9.012;2023-02-28T19:57:43;1.70;85.70
8226;DHT22;4154;48.810;9.012;2023-02-28T20:00:11;1.70;86.00
8226;DHT22;4154;48.810;9.012;2023-02-28T20:02:39;1.60;85.60
8226;DHT22;4154;48.810;9.012;2023-02-28T20:05:06;1.60;86.00
8226;DHT22;4154;48.810;9.012;2023-02-28T20:07:33;1.60;86.20
8226;DHT22;4154;48.810;9.012;2023-02-28T20:12:26;1.50;85.90
8226;DHT22;4154;48.810;9.012;2023-02-28T20:14:52;1.50;86.10
8226;DHT22;4154;48.810;9.012;2023-02-28T20:17:22;1.50;86.60
8226;DHT22;4154;48.810;9.012;2023-02-28T20:22:15;1.50;86.40
8226;DHT22;4154;48.810;9.012;2023-02-28T20:24:41;1.40;86.80
8226;DHT22;4154;48.810;9.012;2023-02-28T20:29:34;1.30;86.40
8226;DHT22;4154;48.810;9.012;2023-02-28T20:34:26;1.30;94.60
8226;DHT22;4154;48.810;9.012;2023-02-28T20:44:13;1.40;86.90
8226;DHT22;4154;48.810;9.012;2023-02-28T20:46:40;1.20;94.30
8226;DHT22;4154;48.810;9.012;2023-02-28T20:49:07;1.30;87.40
8226;DHT22;4154;48.810;9.012;2023-02-28T20:54:05;1.30;87.10
8226;DHT22;4154;48.810;9.012;2023-02-28T21:01:26;1.30;87.50
8226;DHT22;4154;48.810;9.012;2023-02-28T21:03:55;1.20;87.80
8226;DHT22;4154;48.810;9.012;2023-02-28T21:06:25;1.30;88.10
8226;DHT22;4154;48.810;9.012;2023-02-28T21:08:57;1.20;88.10
8226;DHT22;4154;48.810;9.012;2023-02-28T21:11:30;1.20;88.20
8226;DHT22;4154;48.810;9.012;2023-02-28T21:13:59;1.20;88.20
8226;DHT22;4154;48.810;9.012;2023-02-28T21:18:55;1.20;88.10
8226;DHT22;4154;48.810;9.012;2023-02-28T21:26:23;1.10;88.30
8226;DHT22;4154;48.810;9.012;2023-02-28T21:28:52;1.00;88.00
8226;DHT22;4154;48.810;9.012;2023-02-28T21:31:21;0.90;88.30